Time;durP1;ratioP1;P1;durP2;ratioP2;P2;SDS_P1;SDS_P2;PMS_P1;PMS_P2;Temp;Humidity;BMP_temperature;BMP_pressure;BME280_temperature;BME280_humidity;BME280_pressure;Samples;Min_cycle;Max_cycle;Signal;HPM_P1;HPM_P2
2021/05/18 00:00:39;;;;;;;2.20;1.00;;;;;;;9.50;94.93;99988.28;2081293;28;20489;-60
2021/05/18 00:01:40;;;;;;;1.67;0.90;;;;;;;9.49;95.40;99997.00;2080795;28;20022;-60
2021/05/18 00:02:40;;;;;;;2.50;0.97;;;;;;;9.50;95.30;99988.28;2081026;28;20099;-60
2021/05/18 00:03:40;;;;;;;2.37;0.97;;;;;;;9.52;95.17;99993.44;2085470;28;20025;-60
2021/05/18 00:04:41;;;;;;;3.60;1.20;;;;;;;9.46;95.71;100005.75;2081121;28;20025;-61
2021/05/18 00:05:45;;;;;;;4.77;2.10;;;;;;;9.44;96.31;99998.88;2080837;28;20075;-60
2021/05/18 00:06:47;;;;;;;7.82;1.40;;;;;;;9.45;96.59;100000.59;2081230;28;20528;-60
2021/05/18 00:08:22;;;;;;;3.78;1.30;;;;;;;9.42;96.57;99998.91;2081183;28;20501;-60
2021/05/18 00:11:57;;;;;;;2.45;1.10;;;;;;;9.32;97.97;100013.06;2077611;28;20045;-60
2021/05/18 00:12:58;;;;;;;3.60;1.10;;;;;;;9.34;97.76;100012.16;2080756;28;20461;-60
2021/05/18 00:13:58;;;;;;;2.60;1.23;;;;;;;9.38;97.65;100005.13;2080286;28;20474;-60
2021/05/18 00:15:00;;;;;;;2.03;1.30;;;;;;;9.37;97.74;100008.59;2080835;28;20029;-60
2021/05/18 00:16:01;;;;;;;2.78;1.35;;;;;;;9.36;98.13;100009.50;2080963;28;20033;-60
2021/05/18 00:17:03;;;;;;;1.52;1.30;;;;;;;9.43;98.33;100004.97;2088516;28;20484;-61
2021/05/18 00:18:04;;;;;;;4.10;1.38;;;;;;;9.46;98.37;99997.94;2087930;28;20029;-60
2021/05/18 00:19:05;;;;;;;6.37;1.40;;;;;;;9.39;98.31;99998.16;2088945;28;20043;-60
2021/05/18 00:20:08;;;;;;;4.75;1.35;;;;;;;9.37;98.71;99998.19;2088146;28;20445;-60
2021/05/18 00:21:09;;;;;;;3.83;1.50;;;;;;;9.35;98.87;99994.78;2088849;28;20029;-60
2021/05/18 00:22:09;;;;;;;4.28;1.35;;;;;;;9.38;99.37;100001.63;2088161;28;20082;-60
2021/05/18 00:23:11;;;;;;;1.83;1.50;;;;;;;9.35;99.40;100003.44;2088356;28;20505;-61
2021/05/18 00:24:12;;;;;;;3.75;1.50;;;;;;;9.34;99.20;99993.94;2086545;28;20447;-60
2021/05/18 00:25:14;;;;;;;3.63;1.50;;;;;;;9.34;99.89;100000.88;2080633;28;20033;-60
2021/05/18 00:26:14;;;;;;;2.90;1.20;;;;;;;9.29;100.00;100002.78;2080114;28;20029;-60
2021/05/18 00:27:14;;;;;;;5.33;1.57;;;;;;;9.28;100.00;99998.47;2080675;28;20106;-61
2021/05/18 00:28:15;;;;;;;2.67;1.30;;;;;;;9.30;100.00;100005.31;2081061;28;20025;-60
2021/05/18 00:29:15;;;;;;;3.57;1.30;;;;;;;9.31;100.00;99995.75;2081288;28;20021;-60
2021/05/18 00:30:16;;;;;;;3.17;1.60;;;;;;;9.30;100.00;100005.31;2075145;28;20037;-61
2021/05/18 00:31:17;;;;;;;3.15;1.42;;;;;;;9.26;100.00;100003.69;2073126;28;20473;-60
2021/05/18 00:32:17;;;;;;;1.98;1.23;;;;;;;9.29;100.00;99997.56;2076124;28;20029;-60
2021/05/18 00:33:21;;;;;;;4.40;1.40;;;;;;;9.26;100.00;100001.09;2072453;28;20113;-61
2021/05/18 00:34:21;;;;;;;2.15;1.30;;;;;;;9.26;100.00;100002.84;2072724;28;20076;-60
2021/05/18 00:35:21;;;;;;;4.20;1.63;;;;;;;9.25;100.00;100002.00;2081235;28;20021;-60
2021/05/18 00:36:21;;;;;;;3.37;1.60;;;;;;;9.24;100.00;100000.31;2081071;28;20454;-61
2021/05/18 00:37:24;;;;;;;3.20;1.60;;;;;;;9.23;100.00;100003.78;2080861;28;20030;-61
2021/05/18 00:38:25;;;;;;;4.78;1.50;;;;;;;9.23;100.00;100003.78;2080237;28;20021;-61
2021/05/18 00:39:26;;;;;;;2.63;1.50;;;;;;;9.26;100.00;100005.44;2080570;28;20036;-61
2021/05/18 00:40:26;;;;;;;3.60;1.33;;;;;;;9.23;100.00;100014.19;2080233;28;20489;-61
2021/05/18 00:41:26;;;;;;;3.80;1.70;;;;;;;9.25;100.00;100007.22;2072144;28;20030;-61
2021/05/18 00:42:26;;;;;;;3.80;1.77;;;;;;;9.19;100.00;100003.03;2071922;28;20026;-61
2021/05/18 00:43:27;;;;;;;5.20;1.50;;;;;;;9.20;100.00;100003.88;2072729;28;20445;-60
2021/05/18 00:44:27;;;;;;;4.03;1.67;;;;;;;9.24;100.00;100004.63;2072757;28;20026;-61
2021/05/18 00:45:34;;;;;;;5.30;1.70;;;;;;;9.26;100.00;100003.69;2072802;28;20036;-61
2021/05/18 00:46:34;;;;;;;4.57;1.50;;;;;;;9.25;100.00;99999.41;2072896;28;20483;-61
2021/05/18 00:47:34;;;;;;;3.07;1.60;;;;;;;9.29;100.00;100007.97;2077889;28;20033;-61
2021/05/18 00:48:35;;;;;;;4.93;1.63;;;;;;;9.26;100.00;100003.69;2080717;28;20778;-60
2021/05/18 00:49:36;;;;;;;2.93;1.67;;;;;;;9.24;100.00;100005.50;2080550;28;20036;-61
2021/05/18 00:50:40;;;;;;;2.75;1.50;;;;;;;9.23;100.00;100003.78;2080458;28;20193;-61
2021/05/18 00:51:41;;;;;;;3.33;1.75;;;;;;;9.27;100.00;100002.78;2080226;28;20033;-61
2021/05/18 00:52:42;;;;;;;5.78;1.83;;;;;;;9.28;100.00;100001.06;2081056;28;20023;-61
2021/05/18 00:53:42;;;;;;;3.77;1.70;;;;;;;9.37;100.00;100005.13;2080007;28;20037;-61
2021/05/18 00:54:55;;;;;;;3.47;1.57;;;;;;;9.35;100.00;100002.59;2081066;28;20057;-61
2021/05/18 00:56:03;;;;;;;2.92;1.33;;;;;;;9.29;100.00;100001.00;2080972;28;20371;-61
2021/05/18 00:58:39;;;;;;;2.63;1.38;;;;;;;9.30;100.00;100007.09;2055866;28;20028;-61
2021/05/18 00:59:40;;;;;;;4.00;1.40;;;;;;;9.32;100.00;100006.13;2055661;28;20103;-61
2021/05/18 01:00:41;;;;;;;3.20;1.40;;;;;;;9.39;100.00;100004.22;2055299;28;20035;-60
2021/05/18 01:01:41;;;;;;;3.67;1.23;;;;;;;9.27;100.00;100005.41;2079098;28;20033;-61
2021/05/18 01:02:44;;;;;;;8.93;1.50;;;;;;;9.27;100.00;100000.19;2080695;28;20037;-61
2021/05/18 01:03:47;;;;;;;2.22;1.65;;;;;;;9.31;100.00;100003.56;2080440;28;20029;-61
2021/05/18 01:04:48;;;;;;;3.22;1.50;;;;;;;9.31;100.00;100011.34;2080949;28;20397;-61
2021/05/18 01:07:08;;;;;;;2.13;1.40;;;;;;;9.26;100.00;100011.50;2086372;28;20032;-60
2021/05/18 01:08:09;;;;;;;4.28;1.95;;;;;;;9.30;100.00;100004.47;2080077;28;20021;-60
2021/05/18 01:09:13;;;;;;;3.90;1.77;;;;;;;9.34;100.00;100016.47;2084683;28;20056;-61
2021/05/18 01:10:14;;;;;;;4.18;1.52;;;;;;;9.26;100.00;100014.09;2080691;28;20021;-61
2021/05/18 01:11:16;;;;;;;;;;;;;;;9.27;100.00;100015.78;2081451;28;20030;-61
2021/05/18 01:12:16;;;;;;;5.40;1.90;;;;;;;9.24;100.00;100017.63;2079793;28;20385;-61
2021/05/18 01:13:17;;;;;;;4.47;1.83;;;;;;;9.24;100.00;100008.09;2071969;28;20053;-61
2021/05/18 01:14:18;;;;;;;3.15;1.73;;;;;;;9.27;100.00;100017.56;2080071;28;20075;-61
2021/05/18 01:15:19;;;;;;;4.22;1.88;;;;;;;9.21;100.00;100015.97;2080962;28;20501;-61
2021/05/18 01:16:19;;;;;;;3.77;2.03;;;;;;;9.17;100.00;100014.34;2080595;28;20029;-60
2021/05/18 01:17:19;;;;;;;2.47;1.80;;;;;;;9.18;100.00;100014.31;2080947;28;20108;-61
2021/05/18 01:18:20;;;;;;;3.33;1.80;;;;;;;9.15;100.00;100005.75;2080538;28;20053;-60
2021/05/18 01:19:26;;;;;;;3.70;1.60;;;;;;;9.15;100.00;100016.16;2080245;28;20238;-61
2021/05/18 01:20:26;;;;;;;2.50;1.50;;;;;;;9.13;100.00;100012.75;2080170;28;20030;-61
2021/05/18 01:21:27;;;;;;;1.80;1.63;;;;;;;9.12;100.00;100018.84;2079853;28;20033;-60
2021/05/18 01:22:27;;;;;;;3.83;2.00;;;;;;;9.17;100.00;100007.41;2063520;28;20029;-61
2021/05/18 01:23:28;;;;;;;4.87;1.97;;;;;;;9.09;100.00;100006.78;2066066;28;20081;-60
2021/05/18 01:24:28;;;;;;;4.20;2.00;;;;;;;9.09;100.00;100008.50;2077404;28;20033;-60
2021/05/18 01:25:28;;;;;;;3.27;1.50;;;;;;;9.10;100.00;100010.22;2080962;28;20355;-60
2021/05/18 01:26:31;;;;;;;2.87;1.70;;;;;;;9.17;100.00;100016.94;2080618;28;20105;-60
2021/05/18 01:27:31;;;;;;;2.50;1.63;;;;;;;9.12;100.00;100013.63;2077414;28;20050;-60
2021/05/18 01:28:32;;;;;;;5.30;2.00;;;;;;;9.23;100.00;100014.19;2072334;28;20071;-60
2021/05/18 01:29:32;;;;;;;2.45;1.73;;;;;;;9.16;100.00;100013.50;2075714;28;20029;-60
2021/05/18 01:30:33;;;;;;;2.05;1.67;;;;;;;9.15;100.00;100026.56;2080602;28;20036;-60
2021/05/18 01:31:34;;;;;;;2.67;1.70;;;;;;;9.16;100.00;100017.88;2080415;28;20025;-60
2021/05/18 01:32:36;;;;;;;2.95;1.90;;;;;;;9.12;100.00;100017.06;2080587;28;20029;-62
2021/05/18 01:33:36;;;;;;;2.60;1.77;;;;;;;9.11;100.00;100015.38;2080263;28;20075;-60
2021/05/18 01:34:36;;;;;;;2.47;1.70;;;;;;;9.11;100.00;100015.38;2079815;28;20493;-60
2021/05/18 01:35:37;;;;;;;2.20;1.67;;;;;;;9.14;100.00;100028.28;2080084;28;20568;-60
2021/05/18 01:36:38;;;;;;;7.13;1.83;;;;;;;9.13;100.00;100023.13;2080614;28;20025;-60
2021/05/18 01:37:40;;;;;;;2.47;1.63;;;;;;;9.15;100.00;100030.00;2083105;28;20108;-65
2021/05/18 01:38:50;;;;;;;3.42;1.90;;;;;;;9.13;100.00;100030.94;2088873;28;20396;-61
2021/05/18 01:43:32;;;;;;;4.85;2.10;;;;;;;9.10;100.00;100034.47;2088681;28;20029;-60
2021/05/18 01:44:32;;;;;;;2.70;1.87;;;;;;;9.12;100.00;100034.44;2087114;28;20025;-61
2021/05/18 01:45:33;;;;;;;1.60;1.50;;;;;;;9.08;100.00;100033.66;2080106;28;20444;-61
2021/05/18 01:46:34;;;;;;;1.67;1.52;;;;;;;9.10;100.00;100031.00;2080458;28;20033;-61
2021/05/18 01:47:34;;;;;;;2.97;1.60;;;;;;;9.15;100.00;100034.34;2080155;28;20071;-61
2021/05/18 01:48:36;;;;;;;3.70;1.87;;;;;;;9.13;100.00;100036.13;2079958;28;20036;-61
2021/05/18 01:49:37;;;;;;;3.55;1.80;;;;;;;9.11;100.00;100033.56;2079456;28;20041;-61
2021/05/18 01:50:40;;;;;;;3.40;1.77;;;;;;;9.14;100.00;100041.28;2080362;28;20532;-61
2021/05/18 01:51:43;;;;;;;1.65;1.40;;;;;;;9.13;100.00;100038.75;2080379;28;20025;-62
2021/05/18 01:52:43;;;;;;;2.50;1.55;;;;;;;9.11;100.00;100040.53;2080240;28;20024;-61
2021/05/18 01:53:43;;;;;;;15.70;1.97;;;;;;;9.10;100.00;100034.47;2080061;28;20068;-61
2021/05/18 01:54:44;;;;;;;2.10;1.53;;;;;;;9.07;100.00;100036.28;2105977;22;20046;-64
2021/05/18 01:58:15;;;;;;;1.95;1.50;;;;;;;9.04;100.00;100034.63;2078357;28;20125;-65
2021/05/18 01:59:20;;;;;;;3.15;1.80;;;;;;;9.05;100.00;100035.50;2076127;28;20021;-65
2021/05/18 02:00:24;;;;;;;3.15;1.70;;;;;;;8.98;100.00;100038.25;2071196;28;20057;-65
2021/05/18 02:01:25;;;;;;;3.33;1.65;;;;;;;8.96;100.00;100037.44;2069340;28;20034;-65
2021/05/18 02:02:25;;;;;;;2.40;1.67;;;;;;;8.98;100.00;100040.84;2074023;28;20493;-65
2021/05/18 02:03:26;;;;;;;3.47;1.40;;;;;;;8.98;100.00;100045.19;2077090;28;20033;-65
2021/05/18 02:04:31;;;;;;;3.60;2.00;;;;;;;8.92;100.00;100043.59;2067488;28;20041;-65
2021/05/18 02:05:38;;;;;;;2.33;1.48;;;;;;;8.87;100.00;100048.94;2068430;28;20076;-65
2021/05/18 02:06:38;;;;;;;6.18;1.65;;;;;;;8.86;100.00;100041.19;2068008;28;20026;-65
2021/05/18 02:07:40;;;;;;;2.67;1.63;;;;;;;8.81;100.00;100043.03;2067062;28;20105;-65
2021/05/18 02:08:41;;;;;;;2.20;1.92;;;;;;;8.80;100.00;100049.13;2068755;28;20030;-65
2021/05/18 02:09:42;;;;;;;6.87;1.93;;;;;;;8.79;100.00;100044.81;2071643;28;20018;-65
2021/05/18 02:10:42;;;;;;;2.08;1.50;;;;;;;8.74;100.00;100049.28;2071874;28;20964;-65
2021/05/18 02:11:43;;;;;;;3.63;1.53;;;;;;;8.71;100.00;100045.84;2071572;28;20084;-65
2021/05/18 02:12:43;;;;;;;3.60;1.70;;;;;;;8.71;100.00;100048.47;2071595;28;20026;-65
2021/05/18 02:13:49;;;;;;;2.73;1.73;;;;;;;8.67;100.00;100048.56;2071829;28;21358;-65
2021/05/18 02:14:55;;;;;;;2.03;1.60;;;;;;;8.66;100.00;100045.13;2069692;28;20466;-65
2021/05/18 02:16:05;;;;;;;2.67;1.60;;;;;;;8.64;100.00;100046.03;2072140;28;20097;-65
2021/05/18 02:24:35;;;;;;;2.75;1.90;;;;;;;8.67;100.00;100056.38;2070401;28;20069;-65
2021/05/18 02:25:04;;;;;;;4.13;1.92;;;;;;;8.62;100.00;100058.25;2067585;28;20033;-65
2021/05/18 02:26:04;;;;;;;3.08;1.80;;;;;;;8.56;100.00;100052.28;2072164;28;20026;-64
2021/05/18 02:27:05;;;;;;;2.28;1.67;;;;;;;8.60;100.00;100052.22;2069094;28;20030;-65
2021/05/18 02:28:08;;;;;;;6.05;1.60;;;;;;;8.54;100.00;100058.41;2071549;28;20034;-65
2021/05/18 02:29:08;;;;;;;4.15;1.40;;;;;;;8.58;100.00;100065.22;2066931;28;20026;-65
2021/05/18 02:30:09;;;;;;;3.67;1.67;;;;;;;8.54;100.00;100058.41;2068732;28;20669;-65
2021/05/18 02:31:10;;;;;;;4.55;1.48;;;;;;;8.59;100.00;100051.34;2067128;28;20027;-65
2021/05/18 02:32:11;;;;;;;3.88;1.70;;;;;;;8.57;100.00;100055.75;2062559;28;20034;-65
2021/05/18 02:33:11;;;;;;;3.43;1.70;;;;;;;8.61;100.00;100052.19;2062725;28;20026;-65
2021/05/18 02:34:11;;;;;;;4.07;1.60;;;;;;;8.56;100.00;100060.09;2067676;28;20106;-65
2021/05/18 02:35:15;;;;;;;5.07;1.70;;;;;;;8.56;100.00;100060.09;2066391;28;20054;-65
2021/05/18 02:36:17;;;;;;;4.65;1.75;;;;;;;8.55;100.00;100060.97;2068043;28;20355;-65
2021/05/18 02:37:17;;;;;;;4.15;1.80;;;;;;;8.57;100.00;100055.75;2066643;28;20048;-65
2021/05/18 02:38:18;;;;;;;2.40;1.50;;;;;;;8.57;100.00;100066.16;2068711;28;20028;-65
2021/05/18 02:39:18;;;;;;;1.90;1.60;;;;;;;8.53;100.00;100061.91;2062030;28;20038;-65
2021/05/18 02:40:21;;;;;;;2.27;1.50;;;;;;;8.52;100.00;100061.03;2062768;28;20023;-65
2021/05/18 02:41:23;;;;;;;2.58;1.60;;;;;;;8.58;100.00;100062.63;2071550;28;20014;-65
2021/05/18 02:42:24;;;;;;;3.38;1.60;;;;;;;8.59;100.00;100066.09;2071132;28;20033;-65
2021/05/18 02:43:29;;;;;;;3.30;1.55;;;;;;;8.62;100.00;100061.69;2062716;28;20069;-65
2021/05/18 02:44:40;;;;;;;2.88;1.50;;;;;;;8.57;100.00;100060.94;2061585;28;20030;-65
2021/05/18 02:49:38;;;;;;;2.83;1.58;;;;;;;8.61;100.00;100067.75;2066539;28;20042;-65
2021/05/18 02:50:38;;;;;;;3.27;1.47;;;;;;;8.64;100.00;100067.69;2073133;28;20112;-65
2021/05/18 02:51:42;;;;;;;2.83;1.50;;;;;;;8.66;100.00;100065.06;2072884;28;20057;-65
2021/05/18 02:52:42;;;;;;;5.15;1.63;;;;;;;8.63;100.00;100060.78;2064446;28;20034;-65
2021/05/18 02:53:43;;;;;;;1.50;1.40;;;;;;;8.61;100.00;100062.56;2064732;28;20033;-65
2021/05/18 02:54:47;;;;;;;2.97;1.40;;;;;;;8.63;100.00;100066.00;2072486;28;20109;-65
2021/05/18 02:57:54;;;;;;;3.27;1.53;;;;;;;8.68;100.00;100073.66;2073534;28;20022;-65
2021/05/18 03:00:11;;;;;;;2.00;1.45;;;;;;;8.74;100.00;100075.25;2073785;28;20026;-66
2021/05/18 03:01:11;;;;;;;3.10;1.65;;;;;;;8.78;100.00;100069.09;2073739;28;20100;-65
2021/05/18 03:02:12;;;;;;;3.33;1.20;;;;;;;8.76;100.00;100082.13;2072998;28;20382;-66
2021/05/18 03:03:12;;;;;;;2.60;1.43;;;;;;;8.81;100.00;100063.81;2073417;28;20053;-66
2021/05/18 03:04:12;;;;;;;2.87;1.37;;;;;;;8.75;100.00;100069.19;2073646;28;20065;-65
2021/05/18 03:05:12;;;;;;;2.53;1.30;;;;;;;8.76;100.00;100076.09;2073820;28;20049;-65
2021/05/18 03:06:13;;;;;;;2.20;1.40;;;;;;;8.74;100.00;100070.06;2065417;28;20438;-65
2021/05/18 03:07:13;;;;;;;4.03;1.37;;;;;;;8.70;100.00;100067.53;2065366;28;20029;-65
2021/05/18 03:08:13;;;;;;;2.30;1.33;;;;;;;8.74;100.00;100070.06;2065493;28;20476;-65
2021/05/18 03:09:14;;;;;;;1.60;1.20;;;;;;;8.77;100.00;100072.59;2070826;28;20057;-65
2021/05/18 03:10:15;;;;;;;2.27;1.20;;;;;;;8.77;100.00;100072.59;2073650;28;20018;-65
2021/05/18 03:11:16;;;;;;;2.03;1.30;;;;;;;8.80;100.00;100073.38;2073387;28;20273;-65
2021/05/18 03:12:16;;;;;;;1.75;1.40;;;;;;;8.80;99.70;100073.38;2073192;28;20048;-65
2021/05/18 03:13:17;;;;;;;2.83;1.20;;;;;;;8.74;100.00;100072.66;2072586;28;20022;-65
2021/05/18 03:14:18;;;;;;;2.60;1.40;;;;;;;8.70;99.97;100072.72;2073522;28;20386;-65
2021/05/18 03:15:18;;;;;;;3.80;1.20;;;;;;;8.69;99.86;100072.78;2073539;28;20101;-65
2021/05/18 03:16:19;;;;;;;2.30;1.40;;;;;;;8.66;99.90;100076.31;2073703;28;20049;-65
2021/05/18 03:17:19;;;;;;;3.43;1.23;;;;;;;8.66;99.93;100068.53;2064706;28;21026;-65
2021/05/18 03:18:19;;;;;;;2.13;1.20;;;;;;;8.62;99.67;100066.88;2064944;28;20118;-65
2021/05/18 03:19:20;;;;;;;1.27;1.10;;;;;;;8.56;100.00;100069.63;2073073;28;20054;-65
2021/05/18 03:20:20;;;;;;;3.27;1.37;;;;;;;8.52;100.00;100071.41;2073590;28;20117;-65
2021/05/18 03:21:21;;;;;;;2.03;1.10;;;;;;;8.47;100.00;100072.41;2073419;28;20034;-65
2021/05/18 03:22:21;;;;;;;6.03;1.20;;;;;;;8.40;100.00;100064.75;2072950;28;20053;-65
2021/05/18 03:23:23;;;;;;;2.37;1.60;;;;;;;8.44;100.00;100070.72;2073299;28;20045;-65
2021/05/18 03:24:23;;;;;;;2.55;1.25;;;;;;;8.32;100.00;100066.69;2073414;28;20080;-65
2021/05/18 03:25:24;;;;;;;1.63;1.23;;;;;;;8.28;100.00;100075.41;2073434;28;20014;-65
2021/05/18 03:26:26;;;;;;;2.27;1.30;;;;;;;8.31;100.00;100084.91;2073534;28;20500;-65
2021/05/18 03:27:28;;;;;;;4.05;1.60;;;;;;;8.32;100.00;100086.59;2073133;28;20037;-65
2021/05/18 03:28:28;;;;;;;3.47;1.40;;;;;;;8.30;100.00;100089.22;2073010;28;20017;-65
2021/05/18 03:29:31;;;;;;;5.47;1.43;;;;;;;8.29;100.00;100092.69;2073270;28;20061;-65
2021/05/18 03:35:29;;;;;;;2.72;1.40;;;;;;;8.11;100.00;100088.78;2073241;28;20030;-65
2021/05/18 03:36:29;;;;;;;3.28;1.38;;;;;;;8.13;100.00;100088.75;2068262;28;20019;-64
2021/05/18 03:38:44;;;;;;;1.67;1.25;;;;;;;8.18;100.00;100089.53;2073089;28;20505;-65
2021/05/18 03:39:47;;;;;;;3.17;1.17;;;;;;;8.22;100.00;100089.41;2072937;28;20101;-65
2021/05/18 03:40:54;;;;;;;3.55;1.25;;;;;;;8.22;100.00;100092.00;2073383;28;20065;-65
2021/05/18 03:43:11;;;;;;;2.42;1.20;;;;;;;8.28;100.00;100091.00;2073044;28;20034;-65
2021/05/18 03:44:25;;;;;;;3.97;1.45;;;;;;;8.29;100.00;100091.88;2073145;28;20458;-64
2021/05/18 03:45:28;;;;;;;4.82;1.40;;;;;;;8.30;100.00;100089.22;2073140;28;20026;-64
2021/05/18 03:52:33;;;;;;;2.35;1.10;;;;;;;8.59;99.42;100098.13;2065034;28;20050;-65
2021/05/18 03:54:01;;;;;;;1.83;1.35;;;;;;;8.61;99.52;100103.28;2065084;28;20018;-65
2021/05/18 03:58:34;;;;;;;1.38;1.27;;;;;;;8.67;98.88;100108.34;2064966;28;20030;-65
2021/05/18 04:02:39;;;;;;;1.20;1.08;;;;;;;8.74;98.38;100103.84;2073091;28;20658;-65
2021/05/18 04:03:14;;;;;;;2.83;1.95;;;;;;;8.84;96.50;100105.34;2072767;28;20454;-62
2021/05/18 04:10:13;;;;;;;3.20;2.23;;;;;;;8.91;95.44;100101.69;2073050;28;20497;-61
2021/05/18 04:12:08;;;;;;;3.08;1.30;;;;;;;8.95;96.03;100108.53;2071402;28;20060;-62
2021/05/18 04:16:50;;;;;;;1.83;1.33;;;;;;;8.94;95.77;100104.22;2071965;28;20050;-61
2021/05/18 04:16:52;;;;;;;4.30;1.20;;;;;;;9.00;95.81;100117.03;2068800;28;20470;-61
2021/05/18 04:17:25;;;;;;;2.72;1.58;;;;;;;9.02;96.35;100112.66;2069486;28;20055;-61
2021/05/18 04:18:26;;;;;;;2.55;1.40;;;;;;;9.05;96.09;100123.88;2073144;28;20482;-62
2021/05/18 04:19:37;;;;;;;2.40;1.35;;;;;;;9.07;96.07;100119.47;2072784;28;20117;-62
2021/05/18 04:23:00;;;;;;;1.80;1.27;;;;;;;9.13;96.70;100133.19;2070532;28;20663;-61
2021/05/18 04:42:00;;;;;;;2.30;1.30;;;;;;;9.19;95.99;100152.97;2067243;28;20038;-62
2021/05/18 04:50:56;;;;;;;1.63;1.30;;;;;;;9.22;96.22;100147.72;2073070;28;20561;-62
2021/05/18 04:52:04;;;;;;;2.03;1.42;;;;;;;9.31;96.09;100151.81;2072980;28;20430;-61
2021/05/18 04:53:25;;;;;;;4.70;2.42;;;;;;;9.42;96.16;100148.94;2072936;28;20022;-61
2021/05/18 04:59:46;;;;;;;6.78;2.63;;;;;;;10.21;92.88;100139.78;2072665;28;20100;-61
2021/05/18 05:00:51;;;;;;;7.45;2.53;;;;;;;10.47;91.81;100145.16;2072635;28;20132;-61
2021/05/18 05:02:08;;;;;;;4.20;2.10;;;;;;;10.70;90.53;100150.47;2072408;28;20065;-61
2021/05/18 05:06:14;;;;;;;2.97;1.30;;;;;;;11.02;88.82;100145.16;2072803;28;20033;-62
2021/05/18 05:07:11;;;;;;;2.53;1.30;;;;;;;11.63;85.67;100150.03;2072356;28;20068;-62
2021/05/18 05:09:32;;;;;;;4.47;1.13;;;;;;;12.09;82.92;100151.88;2072373;28;20123;-61
2021/05/18 05:15:19;;;;;;;2.85;1.10;;;;;;;13.34;76.39;100152.16;2072730;28;20033;-61
2021/05/18 05:16:19;;;;;;;1.40;0.90;;;;;;;15.50;71.42;100152.69;2072573;28;20502;-61
2021/05/18 05:17:19;;;;;;;3.20;1.00;;;;;;;17.34;62.78;100155.78;2072656;28;20219;-62
2021/05/18 05:18:19;;;;;;;2.10;0.80;;;;;;;18.28;59.42;100162.41;2072577;28;20505;-62
2021/05/18 05:19:21;;;;;;;2.63;0.90;;;;;;;18.47;57.73;100158.59;2072655;28;20022;-61
2021/05/18 05:20:21;;;;;;;2.35;0.90;;;;;;;17.88;57.42;100164.84;2072497;28;20025;-62
2021/05/18 05:21:29;;;;;;;1.57;0.87;;;;;;;17.63;58.50;100166.34;2072564;28;20119;-61
2021/05/18 05:22:29;;;;;;;4.18;0.90;;;;;;;16.45;61.67;100167.81;2072330;28;20028;-61
2021/05/18 05:23:30;;;;;;;2.57;0.90;;;;;;;16.23;62.19;100169.91;2072507;28;20049;-62
2021/05/18 05:24:31;;;;;;;2.90;1.10;;;;;;;15.42;64.50;100163.59;2072384;28;20026;-62
2021/05/18 05:25:32;;;;;;;2.13;0.80;;;;;;;15.16;65.45;100171.00;2072567;28;20054;-62
2021/05/18 05:26:34;;;;;;;2.23;1.00;;;;;;;14.85;67.00;100182.16;2072457;28;20253;-62
2021/05/18 05:27:35;;;;;;;1.63;0.90;;;;;;;14.27;69.54;100176.09;2063853;28;20030;-62
2021/05/18 05:28:35;;;;;;;3.17;0.97;;;;;;;13.79;72.95;100178.22;2063527;28;20117;-62
2021/05/18 05:29:35;;;;;;;1.17;0.70;;;;;;;13.83;71.60;100188.50;2072638;28;20025;-62
2021/05/18 05:30:36;;;;;;;1.83;1.10;;;;;;;13.91;72.62;100182.91;2072516;28;20403;-62
2021/05/18 05:31:38;;;;;;;6.37;1.10;;;;;;;13.87;73.04;100178.72;2072351;28;20021;-62
2021/05/18 05:32:38;;;;;;;1.17;0.88;;;;;;;14.15;71.96;100177.50;2072348;28;20028;-62
2021/05/18 05:33:39;;;;;;;5.30;1.23;;;;;;;13.88;71.92;100176.97;2072350;28;20064;-62
2021/05/18 05:34:39;;;;;;;3.43;1.00;;;;;;;14.31;71.71;100177.63;2072357;28;20026;-62
2021/05/18 05:35:39;;;;;;;3.13;1.30;;;;;;;15.21;67.48;100160.25;2068948;28;20549;-62
2021/05/18 05:36:40;;;;;;;3.47;0.90;;;;;;;15.67;66.24;100170.19;2064255;28;20101;-62
2021/05/18 05:37:40;;;;;;;2.37;0.90;;;;;;;16.06;65.53;100171.69;2064276;28;20495;-62
2021/05/18 05:38:41;;;;;;;2.03;1.00;;;;;;;16.58;63.50;100165.34;2066981;28;20034;-61
2021/05/18 05:39:41;;;;;;;1.42;1.20;;;;;;;17.16;60.85;100167.41;2072680;28;20021;-62
2021/05/18 05:40:42;;;;;;;1.97;1.00;;;;;;;16.74;62.30;100173.22;2072486;28;20080;-62
2021/05/18 05:41:42;;;;;;;1.43;0.90;;;;;;;16.40;62.92;100174.25;2072420;28;20053;-62
2021/05/18 05:42:42;;;;;;;3.00;1.30;;;;;;;16.70;62.21;100171.72;2072261;28;20097;-62
2021/05/18 05:43:42;;;;;;;3.27;1.10;;;;;;;16.45;62.97;100177.50;2072453;28;20089;-62
2021/05/18 05:44:43;;;;;;;3.60;1.63;;;;;;;17.19;60.22;100175.13;2072442;28;20117;-62
2021/05/18 05:45:43;;;;;;;2.58;0.90;;;;;;;18.79;55.15;100169.72;2072668;28;20049;-62
2021/05/18 05:46:44;;;;;;;2.90;1.20;;;;;;;20.86;50.30;100166.16;2072439;28;20021;-62
2021/05/18 05:47:45;;;;;;;1.83;0.90;;;;;;;22.90;45.82;100176.03;2063823;28;20022;-62
2021/05/18 05:48:52;;;;;;;2.42;1.08;;;;;;;21.60;46.44;100177.38;2063680;28;20533;-62
2021/05/18 05:49:55;;;;;;;5.15;1.08;;;;;;;20.33;49.65;100183.16;2072735;28;20021;-62
2021/05/18 05:50:55;;;;;;;1.55;0.70;;;;;;;19.41;51.77;100178.84;2072626;28;20490;-62
2021/05/18 05:51:56;;;;;;;1.60;1.10;;;;;;;19.15;52.74;100183.28;2072383;28;20026;-61
2021/05/18 05:52:56;;;;;;;1.77;0.93;;;;;;;18.54;54.72;100191.56;2072343;28;20018;-62
2021/05/18 05:53:59;;;;;;;1.73;0.90;;;;;;;17.85;56.18;100186.16;2072460;28;20026;-62
2021/05/18 05:55:00;;;;;;;3.35;1.17;;;;;;;17.23;58.35;100184.53;2072211;28;20030;-62
2021/05/18 05:56:00;;;;;;;1.93;0.90;;;;;;;16.78;59.15;100189.69;2072496;28;20026;-61
2021/05/18 05:57:00;;;;;;;1.43;1.03;;;;;;;16.14;61.13;100195.78;2072541;28;20060;-62
2021/05/18 05:58:00;;;;;;;2.83;1.13;;;;;;;15.66;63.24;100194.75;2063587;28;20101;-62
2021/05/18 05:59:03;;;;;;;1.40;1.07;;;;;;;15.35;64.37;100191.06;2063485;28;20283;-62
2021/05/18 06:00:07;;;;;;;1.95;1.00;;;;;;;14.83;66.67;100197.13;2072275;28;20502;-62
2021/05/18 06:01:07;;;;;;;3.55;1.35;;;;;;;14.07;69.34;100195.31;2072625;28;20026;-62
2021/05/18 06:02:07;;;;;;;3.50;1.70;;;;;;;13.99;69.90;100196.53;2072064;28;20022;-62
2021/05/18 06:03:08;;;;;;;2.47;1.30;;;;;;;13.34;73.42;100199.28;2072333;28;20037;-61
2021/05/18 06:04:08;;;;;;;5.73;1.67;;;;;;;13.32;73.69;100198.50;2071792;28;20021;-61
2021/05/18 06:05:09;;;;;;;2.10;1.50;;;;;;;13.14;74.63;100194.03;2072564;28;20375;-62
2021/05/18 06:06:09;;;;;;;2.75;1.50;;;;;;;13.05;76.00;100196.09;2069558;28;20030;-62
2021/05/18 06:07:10;;;;;;;5.20;1.95;;;;;;;12.73;76.59;100203.47;2064270;28;20477;-62
2021/05/18 06:08:10;;;;;;;3.40;1.90;;;;;;;12.66;76.67;100202.00;2064117;28;20449;-61
2021/05/18 06:09:11;;;;;;;4.70;1.70;;;;;;;12.32;78.56;100208.50;2064301;28;20357;-62
2021/05/18 06:10:18;;;;;;;3.90;2.17;;;;;;;12.12;79.31;100207.50;2064046;28;20026;-61
2021/05/18 06:11:30;;;;;;;3.75;1.90;;;;;;;12.13;80.07;100209.19;2055593;28;20019;-62
2021/05/18 06:12:44;;;;;;;2.78;1.70;;;;;;;12.11;79.95;100207.56;2056453;28;20030;-62
2021/05/18 06:15:25;;;;;;;3.63;1.98;;;;;;;11.84;82.55;100190.19;2072355;28;20045;-62
2021/05/18 06:33:56;;;;;;;5.03;2.20;;;;;;;14.96;70.33;100206.09;2040702;29;20031;-62
2021/05/18 06:43:17;;;;;;;1.55;0.85;;;;;;;33.80;23.37;100223.88;2073579;28;20498;-63
2021/05/18 06:46:58;;;;;;;2.78;0.95;;;;;;;36.10;20.53;100229.44;2065708;28;20129;-63
2021/05/18 06:47:58;;;;;;;1.63;0.88;;;;;;;34.55;21.38;100234.00;2065437;28;20491;-63
2021/05/18 06:48:58;;;;;;;5.90;1.10;;;;;;;31.01;26.59;100231.66;2065585;28;20026;-62
2021/05/18 06:50:12;;;;;;;3.42;0.85;;;;;;;35.53;21.09;100229.94;2065435;28;20479;-63
2021/05/18 06:51:12;;;;;;;4.03;0.90;;;;;;;36.45;19.57;100227.19;2065660;28;20386;-63
2021/05/18 06:52:12;;;;;;;1.27;0.60;;;;;;;33.88;22.39;100233.69;2065476;28;20026;-63
2021/05/18 06:53:13;;;;;;;6.67;1.00;;;;;;;35.44;20.76;100232.06;2073605;28;20374;-63
2021/05/18 06:54:13;;;;;;;2.93;0.87;;;;;;;34.29;21.55;100228.25;2073246;28;20030;-63
2021/05/18 06:55:18;;;;;;;4.30;0.93;;;;;;;33.48;22.91;100237.78;2073685;28;20022;-63
2021/05/18 06:56:19;;;;;;;2.08;0.70;;;;;;;35.23;20.79;100235.78;2072860;28;20064;-63